createdAt,value
2018-12-26T00:02:17.420Z,1.20
2018-12-26T00:04:46.283Z,1.37
2018-12-26T00:07:15.416Z,1.97
2018-12-26T00:09:44.282Z,1.70
2018-12-26T00:12:13.256Z,1.50
2018-12-26T00:17:18.089Z,1.40
2018-12-26T00:19:47.217Z,1.10
2018-12-26T00:22:16.671Z,1.40
2018-12-26T00:25:05.029Z,1.67
2018-12-26T00:27:34.011Z,1.63
2018-12-26T00:30:02.880Z,1.30
2018-12-26T00:32:31.757Z,1.80
2018-12-26T00:35:00.437Z,1.50
2018-12-26T00:37:29.075Z,1.47
2018-12-26T00:39:57.718Z,1.40
2018-12-26T00:42:26.684Z,1.67
2018-12-26T00:44:55.318Z,1.57
2018-12-26T00:47:43.297Z,2.27
2018-12-26T00:50:12.415Z,1.77
2018-12-26T00:52:41.498Z,1.23
2018-12-26T00:55:10.588Z,1.23
2018-12-26T00:57:39.456Z,1.33
2018-12-26T01:00:08.542Z,1.60
2018-12-26T01:02:37.672Z,1.33
2018-12-26T01:05:06.367Z,1.47
2018-12-26T01:07:35.481Z,1.30
2018-12-26T01:10:04.428Z,1.17
2018-12-26T01:12:33.344Z,1.57
2018-12-26T01:15:02.512Z,1.10
2018-12-26T01:17:31.145Z,1.40
2018-12-26T01:19:59.885Z,2.13
2018-12-26T01:22:28.984Z,1.30
2018-12-26T01:24:57.846Z,1.47
2018-12-26T01:27:26.775Z,1.20
2018-12-26T01:29:55.401Z,1.20
2018-12-26T01:32:24.500Z,2.00
2018-12-26T01:34:53.423Z,1.77
2018-12-26T01:37:22.288Z,1.50
2018-12-26T01:39:51.157Z,1.70
2018-12-26T01:42:19.863Z,1.77
2018-12-26T01:44:48.657Z,1.27
2018-12-26T01:47:17.764Z,1.50
2018-12-26T01:49:46.677Z,1.60
2018-12-26T01:52:15.759Z,1.90
2018-12-26T01:54:44.857Z,1.97
2018-12-26T01:57:14.015Z,1.60
2018-12-26T01:59:43.100Z,2.03
2018-12-26T02:02:31.077Z,1.87
2018-12-26T02:05:00.164Z,2.13
2018-12-26T02:07:28.860Z,1.43
2018-12-26T02:09:57.557Z,1.70
2018-12-26T02:12:26.189Z,1.80
2018-12-26T02:14:54.829Z,0.90
2018-12-26T02:17:23.520Z,0.90
2018-12-26T02:19:52.383Z,2.70
2018-12-26T02:22:21.495Z,1.77
2018-12-26T02:24:50.416Z,1.83
2018-12-26T02:27:19.104Z,1.87
2018-12-26T02:29:47.737Z,3.50
2018-12-26T02:32:16.622Z,1.77
2018-12-26T02:34:45.565Z,2.23
2018-12-26T02:37:14.425Z,1.70
2018-12-26T02:39:43.289Z,1.80
2018-12-26T02:42:12.728Z,2.60
2018-12-26T02:44:41.865Z,3.27
2018-12-26T02:47:22.985Z,2.93
2018-12-26T02:49:51.722Z,2.87
2018-12-26T02:52:20.605Z,1.70
2018-12-26T02:54:49.605Z,2.90
2018-12-26T02:57:37.792Z,1.60
2018-12-26T03:00:26.169Z,2.10
2018-12-26T03:03:14.105Z,2.30
2018-12-26T03:05:43.294Z,2.77
2018-12-26T03:08:31.694Z,2.17
2018-12-26T03:11:19.678Z,2.53
2018-12-26T03:14:07.602Z,1.80
2018-12-26T03:19:29.689Z,3.10
2018-12-26T03:24:52.011Z,2.73
2018-12-26T03:27:21.181Z,3.20
2018-12-26T03:29:50.078Z,2.47
2018-12-26T03:32:18.950Z,1.97
2018-12-26T03:34:47.871Z,2.20
2018-12-26T03:37:16.724Z,2.13
2018-12-26T03:39:45.597Z,2.50
2018-12-26T03:42:14.740Z,2.20
2018-12-26T03:44:44.012Z,1.83
2018-12-26T03:47:12.780Z,2.00
2018-12-26T03:49:41.638Z,1.80
2018-12-26T03:54:45.634Z,2.20
2018-12-26T03:57:14.388Z,2.20
2018-12-26T03:59:43.332Z,2.43
2018-12-26T04:02:12.822Z,2.33
2018-12-26T04:04:41.752Z,2.30
2018-12-26T04:07:10.461Z,2.90
2018-12-26T04:09:39.281Z,2.00
2018-12-26T04:12:08.088Z,2.03
2018-12-26T04:14:37.762Z,2.80
2018-12-26T04:17:06.722Z,2.60
2018-12-26T04:19:35.436Z,2.73
2018-12-26T04:22:04.605Z,3.00
2018-12-26T04:24:33.472Z,2.57
2018-12-26T04:27:02.341Z,2.50
2018-12-26T04:29:31.492Z,2.47
2018-12-26T04:32:00.625Z,2.33
2018-12-26T04:34:29.716Z,2.43
2018-12-26T04:36:58.555Z,2.43
2018-12-26T04:39:27.185Z,3.37
2018-12-26T04:41:56.044Z,3.30
2018-12-26T04:44:24.978Z,2.80
2018-12-26T04:46:53.837Z,2.73
2018-12-26T04:49:23.927Z,3.27
2018-12-26T04:51:52.933Z,4.20
2018-12-26T04:54:21.867Z,3.23
2018-12-26T04:56:50.497Z,3.40
2018-12-26T04:59:19.190Z,4.17
2018-12-26T05:01:48.533Z,3.70
2018-12-26T05:04:17.477Z,4.97
2018-12-26T05:06:46.401Z,4.10
2018-12-26T05:09:15.044Z,4.97
2018-12-26T05:11:43.908Z,6.27
2018-12-26T05:14:12.589Z,6.33
2018-12-26T05:16:41.924Z,7.27
2018-12-26T05:19:10.807Z,6.70
2018-12-26T05:21:39.728Z,6.80
2018-12-26T05:24:08.796Z,6.00
2018-12-26T05:26:37.437Z,6.63
2018-12-26T05:29:06.300Z,8.37
2018-12-26T05:31:34.996Z,8.10
2018-12-26T05:34:03.729Z,7.63
2018-12-26T05:36:32.625Z,8.90
2018-12-26T05:39:01.324Z,10.57
2018-12-26T05:41:30.425Z,10.67
2018-12-26T05:43:59.288Z,9.60
2018-12-26T05:46:28.196Z,8.90
2018-12-26T05:48:56.999Z,10.07
2018-12-26T05:51:25.892Z,10.07
2018-12-26T05:53:54.752Z,11.90
2018-12-26T05:56:23.392Z,10.70
2018-12-26T05:58:52.257Z,9.73
2018-12-26T06:01:21.192Z,11.43
2018-12-26T06:03:50.294Z,11.23
2018-12-26T06:06:19.153Z,10.93
2018-12-26T06:08:48.092Z,10.53
2018-12-26T06:11:36.013Z,10.60
2018-12-26T06:14:04.934Z,10.70
2018-12-26T06:16:33.837Z,9.23
2018-12-26T06:19:02.736Z,11.27
2018-12-26T06:21:31.375Z,10.57
2018-12-26T06:24:00.070Z,10.57
2018-12-26T06:26:29.346Z,9.63
2018-12-26T06:28:57.981Z,11.60
2018-12-26T06:31:26.688Z,11.30
2018-12-26T06:33:55.553Z,9.90
2018-12-26T06:36:24.428Z,11.23
2018-12-26T06:38:53.129Z,10.00
2018-12-26T06:41:22.220Z,9.20
2018-12-26T06:43:51.507Z,11.70
2018-12-26T06:46:20.148Z,12.23
2018-12-26T06:48:48.995Z,10.93
2018-12-26T06:51:18.101Z,10.60
2018-12-26T06:53:46.747Z,10.70
2018-12-26T06:56:27.905Z,10.37
2018-12-26T06:58:56.830Z,10.80
2018-12-26T07:01:25.753Z,10.40
2018-12-26T07:03:54.660Z,11.60
2018-12-26T07:06:23.446Z,10.80
2018-12-26T07:08:52.638Z,8.10
2018-12-26T07:11:21.541Z,9.80
2018-12-26T07:14:09.525Z,10.30
2018-12-26T07:16:38.385Z,10.20
2018-12-26T07:19:07.268Z,9.07
2018-12-26T07:21:35.970Z,10.00
2018-12-26T07:24:04.972Z,10.20
2018-12-26T07:26:34.133Z,10.33
2018-12-26T07:29:02.809Z,10.90
2018-12-26T07:31:31.681Z,9.87
2018-12-26T07:34:00.327Z,10.20
2018-12-26T07:36:28.969Z,13.03
2018-12-26T07:38:58.128Z,10.17
2018-12-26T07:41:27.013Z,9.73
2018-12-26T07:43:56.108Z,10.07
2018-12-26T07:46:24.806Z,10.13
2018-12-26T07:48:53.671Z,9.87
2018-12-26T07:51:22.794Z,10.50
2018-12-26T07:53:51.720Z,10.77
2018-12-26T07:56:20.364Z,11.40
2018-12-26T07:58:49.314Z,10.10
2018-12-26T08:01:18.461Z,11.27
2018-12-26T08:03:47.548Z,9.83
2018-12-26T08:06:16.645Z,10.80
2018-12-26T08:08:45.564Z,9.57
2018-12-26T08:11:14.437Z,12.23
2018-12-26T08:13:43.309Z,12.30
2018-12-26T08:16:12.002Z,10.30
2018-12-26T08:18:40.889Z,11.63
2018-12-26T08:21:09.773Z,13.60
2018-12-26T08:23:39.233Z,12.10
2018-12-26T08:26:07.884Z,12.33
2018-12-26T08:28:36.829Z,10.80
2018-12-26T08:31:05.481Z,10.80
2018-12-26T08:33:34.126Z,11.80
2018-12-26T08:36:02.822Z,11.53
2018-12-26T08:38:32.207Z,11.80
2018-12-26T08:41:01.334Z,12.47
2018-12-26T08:43:30.256Z,12.23
2018-12-26T08:45:59.616Z,11.80
2018-12-26T08:48:28.733Z,11.90
2018-12-26T08:50:57.444Z,11.70
2018-12-26T08:53:26.790Z,13.33
2018-12-26T08:55:55.689Z,11.83
2018-12-26T08:58:24.618Z,11.83
2018-12-26T09:01:12.776Z,13.30
2018-12-26T09:03:41.855Z,11.90
2018-12-26T09:06:10.720Z,12.47
2018-12-26T09:08:39.353Z,11.30
2018-12-26T09:11:27.325Z,11.70
2018-12-26T09:13:56.420Z,11.63
2018-12-26T09:16:25.289Z,12.53
2018-12-26T09:18:53.993Z,13.23
2018-12-26T09:21:23.129Z,12.60
2018-12-26T09:23:51.772Z,12.47
2018-12-26T09:26:20.575Z,11.30
2018-12-26T09:28:49.480Z,11.77
2018-12-26T09:31:18.649Z,12.80
2018-12-26T09:33:47.537Z,12.97
2018-12-26T09:36:16.411Z,11.10
2018-12-26T09:38:45.097Z,11.40
2018-12-26T09:41:13.977Z,12.10
2018-12-26T09:43:43.092Z,11.07
2018-12-26T09:46:12.003Z,11.40
2018-12-26T09:48:59.928Z,12.00
2018-12-26T09:51:28.636Z,9.63
2018-12-26T09:53:57.729Z,10.80
2018-12-26T09:56:27.091Z,12.07
2018-12-26T09:58:56.477Z,12.20
2018-12-26T10:01:25.124Z,11.37
2018-12-26T10:03:53.768Z,12.10
2018-12-26T10:06:23.128Z,11.30
2018-12-26T10:08:52.232Z,10.80
2018-12-26T10:11:21.340Z,11.60
2018-12-26T10:13:50.889Z,11.03
2018-12-26T10:16:20.050Z,10.60
2018-12-26T10:18:49.152Z,11.47
2018-12-26T10:21:18.556Z,10.50
2018-12-26T10:23:47.276Z,10.47
2018-12-26T10:26:16.423Z,9.73
2018-12-26T10:28:45.112Z,10.30
2018-12-26T10:31:14.041Z,9.67
2018-12-26T10:33:42.993Z,8.63
2018-12-26T10:36:12.045Z,8.47
2018-12-26T10:38:41.623Z,9.13
2018-12-26T10:41:10.257Z,9.37
2018-12-26T10:43:39.124Z,8.87
2018-12-26T10:46:08.040Z,9.00
2018-12-26T10:48:36.937Z,8.43
2018-12-26T10:51:05.828Z,7.93
2018-12-26T10:53:35.162Z,8.03
2018-12-26T10:56:04.325Z,7.63
2018-12-26T10:58:33.333Z,7.97
2018-12-26T11:01:02.457Z,8.80
2018-12-26T11:03:31.333Z,6.90
2018-12-26T11:06:00.196Z,7.47
2018-12-26T11:08:29.108Z,6.73
2018-12-26T11:10:58.237Z,7.90
2018-12-26T11:13:27.176Z,7.93
2018-12-26T11:15:56.572Z,7.10
2018-12-26T11:18:26.156Z,7.47
2018-12-26T11:20:55.625Z,6.83
2018-12-26T11:23:24.784Z,7.80
2018-12-26T11:25:53.650Z,7.60
2018-12-26T11:28:22.329Z,6.23
2018-12-26T11:30:51.312Z,7.47
2018-12-26T11:33:20.006Z,6.00
2018-12-26T11:35:48.665Z,5.30
2018-12-26T11:38:17.528Z,5.40
2018-12-26T11:40:46.457Z,6.20
2018-12-26T11:43:15.492Z,5.30
2018-12-26T11:45:45.088Z,4.63
2018-12-26T11:48:14.209Z,6.30
2018-12-26T11:50:43.548Z,6.10
2018-12-26T11:53:12.481Z,4.80
2018-12-26T11:55:41.549Z,4.97
2018-12-26T11:58:10.441Z,4.90
2018-12-26T12:00:39.304Z,4.70
2018-12-26T12:03:08.241Z,5.60
2018-12-26T12:05:37.106Z,5.23
2018-12-26T12:08:05.743Z,6.07
2018-12-26T12:10:34.877Z,5.23
2018-12-26T12:13:03.900Z,4.40
2018-12-26T12:15:32.825Z,5.20
2018-12-26T12:18:01.689Z,3.90
2018-12-26T12:20:30.893Z,4.53
2018-12-26T12:23:00.271Z,5.07
2018-12-26T12:25:29.018Z,5.07
2018-12-26T12:27:58.161Z,4.83
2018-12-26T12:30:26.896Z,4.67
2018-12-26T12:32:55.812Z,5.10
2018-12-26T12:35:24.697Z,5.50
2018-12-26T12:37:53.978Z,5.83
2018-12-26T12:40:23.295Z,5.17
2018-12-26T12:42:52.888Z,4.97
2018-12-26T12:45:21.649Z,4.17
2018-12-26T12:47:50.504Z,4.10
2018-12-26T12:50:19.380Z,5.17
2018-12-26T12:52:48.624Z,4.70
2018-12-26T12:55:17.518Z,4.00
2018-12-26T12:57:46.509Z,4.50
2018-12-26T13:00:15.888Z,4.83
2018-12-26T13:02:44.517Z,5.60
2018-12-26T13:05:13.713Z,4.40
2018-12-26T13:07:42.584Z,5.83
2018-12-26T13:10:11.214Z,4.50
2018-12-26T13:12:40.587Z,4.10
2018-12-26T13:15:09.217Z,4.40
2018-12-26T13:17:38.082Z,4.87
2018-12-26T13:20:08.534Z,4.70
2018-12-26T13:22:37.628Z,4.60
2018-12-26T13:25:06.710Z,4.40
2018-12-26T13:27:35.684Z,4.83
2018-12-26T13:30:05.001Z,5.20
2018-12-26T13:32:33.983Z,4.70
2018-12-26T13:35:03.139Z,4.73
2018-12-26T13:37:40.011Z,4.33
2018-12-26T13:40:08.974Z,4.70
2018-12-26T13:42:38.069Z,4.80
2018-12-26T13:45:07.245Z,4.37
2018-12-26T13:47:36.209Z,4.60
2018-12-26T13:50:05.372Z,3.77
2018-12-26T13:52:34.292Z,4.40
2018-12-26T13:55:04.729Z,3.90
2018-12-26T13:57:33.820Z,5.37
2018-12-26T14:00:02.939Z,4.60
2018-12-26T14:02:32.208Z,4.30
2018-12-26T14:05:01.253Z,5.23
2018-12-26T14:07:30.189Z,4.80
2018-12-26T14:09:59.130Z,3.73
2018-12-26T14:12:28.205Z,4.40
2018-12-26T14:14:56.846Z,3.30
2018-12-26T14:17:25.837Z,3.20
2018-12-26T14:19:54.767Z,4.17
2018-12-26T14:22:23.439Z,3.67
2018-12-26T14:24:52.320Z,4.67
2018-12-26T14:27:29.041Z,4.30
2018-12-26T14:29:52.110Z,4.47
2018-12-26T14:32:21.260Z,3.83
2018-12-26T14:34:50.501Z,3.70
2018-12-26T14:37:19.613Z,6.47
2018-12-26T14:39:48.476Z,4.30
2018-12-26T14:42:17.412Z,6.50
2018-12-26T14:44:46.545Z,6.20
2018-12-26T14:47:15.545Z,4.33
2018-12-26T14:49:45.003Z,4.73
2018-12-26T14:52:13.691Z,7.47
2018-12-26T14:54:42.473Z,5.73
2018-12-26T14:57:11.813Z,6.30
2018-12-26T14:59:41.607Z,7.03
2018-12-26T15:02:10.468Z,5.77
2018-12-26T15:04:39.344Z,5.57
2018-12-26T15:07:08.292Z,4.97
2018-12-26T15:09:38.114Z,5.10
2018-12-26T15:12:06.753Z,5.40
2018-12-26T15:14:35.666Z,4.87
2018-12-26T15:17:05.193Z,6.97
2018-12-26T15:19:34.377Z,6.07
2018-12-26T15:22:03.588Z,7.03
2018-12-26T15:24:32.772Z,6.53
2018-12-26T15:27:01.408Z,5.13
2018-12-26T15:29:30.506Z,4.33
2018-12-26T15:31:59.939Z,5.50
2018-12-26T15:34:29.293Z,5.60
2018-12-26T15:36:58.897Z,5.27
2018-12-26T15:39:28.251Z,6.33
2018-12-26T15:41:57.133Z,5.27
2018-12-26T15:44:26.223Z,5.53
2018-12-26T15:46:54.946Z,5.77
2018-12-26T15:49:24.130Z,5.80
2018-12-26T15:51:53.020Z,6.25
2018-12-26T15:54:22.060Z,5.77
2018-12-26T15:56:51.104Z,6.37
2018-12-26T15:59:39.384Z,6.10
2018-12-26T16:02:08.720Z,5.50
2018-12-26T16:04:38.078Z,6.10
2018-12-26T16:07:26.226Z,6.43
2018-12-26T16:09:55.222Z,7.93
2018-12-26T16:12:24.498Z,5.47
2018-12-26T16:14:53.672Z,6.30
2018-12-26T16:17:22.628Z,5.30
2018-12-26T16:19:51.520Z,5.53
2018-12-26T16:22:20.230Z,6.30
2018-12-26T16:24:49.189Z,4.97
2018-12-26T16:27:37.364Z,5.73
2018-12-26T16:30:25.593Z,5.40
2018-12-26T16:32:54.604Z,6.80
2018-12-26T16:35:42.763Z,5.57
2018-12-26T16:38:12.036Z,5.87
2018-12-26T16:41:00.057Z,6.47
2018-12-26T16:43:47.997Z,6.37
2018-12-26T16:46:35.969Z,6.13
2018-12-26T16:49:24.113Z,7.67
2018-12-26T16:52:12.101Z,6.17
2018-12-26T16:54:52.362Z,6.73
2018-12-26T16:57:33.410Z,6.47
2018-12-26T17:00:15.071Z,6.40
2018-12-26T17:02:56.590Z,5.60
2018-12-26T17:05:37.498Z,5.60
2018-12-26T17:08:18.465Z,6.60
2018-12-26T17:10:59.305Z,7.30
2018-12-26T17:13:39.982Z,5.80
2018-12-26T17:16:20.898Z,6.70
2018-12-26T17:19:01.721Z,7.07
2018-12-26T17:21:43.275Z,9.35
2018-12-26T17:24:24.581Z,7.20
2018-12-26T17:27:05.929Z,7.20
2018-12-26T17:29:45.342Z,7.60
2018-12-26T17:32:13.990Z,7.10
2018-12-26T17:34:42.925Z,7.13
2018-12-26T17:37:11.882Z,7.37
2018-12-26T17:39:41.745Z,6.67
2018-12-26T17:42:10.511Z,7.47
2018-12-26T17:44:39.860Z,6.57
2018-12-26T17:47:09.081Z,5.90
2018-12-26T17:49:37.962Z,6.30
2018-12-26T17:52:07.315Z,7.40
2018-12-26T17:55:08.020Z,7.10
2018-12-26T17:57:40.433Z,6.07
2018-12-26T18:00:47.929Z,6.00
2018-12-26T18:03:17.028Z,5.63
2018-12-26T18:05:46.203Z,9.00
2018-12-26T18:08:15.129Z,6.50
2018-12-26T18:10:43.774Z,6.90
2018-12-26T18:13:12.557Z,6.30
2018-12-26T18:15:41.478Z,6.93
2018-12-26T18:18:10.349Z,8.53
2018-12-26T18:20:39.580Z,7.80
2018-12-26T18:23:08.697Z,7.10
2018-12-26T18:25:37.594Z,9.17
2018-12-26T18:28:06.353Z,7.33
2018-12-26T18:30:35.240Z,6.73
2018-12-26T18:33:04.110Z,7.13
2018-12-26T18:35:52.337Z,6.27
2018-12-26T18:38:21.451Z,6.10
2018-12-26T18:43:42.685Z,6.13
2018-12-26T18:46:23.114Z,6.70
2018-12-26T18:49:03.485Z,7.00
2018-12-26T18:51:44.536Z,7.67
2018-12-26T18:54:25.608Z,6.97
2018-12-26T18:57:06.610Z,7.33
2018-12-26T18:59:47.816Z,6.90
2018-12-26T19:02:28.160Z,6.87
2018-12-26T19:07:50.675Z,7.20
2018-12-26T19:10:38.705Z,7.37
2018-12-26T19:13:26.869Z,6.40
2018-12-26T19:16:14.924Z,6.70
2018-12-26T19:19:03.560Z,5.57
2018-12-26T19:21:51.794Z,7.37
2018-12-26T19:24:39.953Z,7.70
2018-12-26T19:27:28.181Z,6.83
2018-12-26T19:30:08.942Z,8.20
2018-12-26T19:32:49.961Z,8.07
2018-12-26T19:35:30.297Z,7.47
2018-12-26T19:38:11.161Z,9.20
2018-12-26T19:40:51.736Z,8.20
2018-12-26T19:43:32.413Z,9.90
2018-12-26T19:46:13.302Z,8.27
2018-12-26T19:51:17.421Z,7.83
2018-12-26T19:53:46.516Z,8.07
2018-12-26T19:56:15.298Z,8.43
2018-12-26T19:58:44.380Z,7.77
2018-12-26T20:01:13.123Z,7.27
2018-12-26T20:03:42.281Z,8.70
2018-12-26T20:06:11.153Z,8.70
2018-12-26T20:08:39.870Z,8.20
2018-12-26T20:11:08.760Z,10.00
2018-12-26T20:13:37.852Z,7.97
2018-12-26T20:16:07.014Z,9.53
2018-12-26T20:18:35.678Z,10.33
2018-12-26T20:21:04.376Z,8.87
2018-12-26T20:23:33.266Z,10.00
2018-12-26T20:26:02.145Z,8.33
2018-12-26T20:28:31.112Z,10.53
2018-12-26T20:31:00.577Z,10.80
2018-12-26T20:33:29.468Z,9.67
2018-12-26T20:35:58.630Z,8.73
2018-12-26T20:38:27.744Z,9.13
2018-12-26T20:40:56.937Z,9.53
2018-12-26T20:43:26.265Z,9.73
2018-12-26T20:45:55.241Z,10.60
2018-12-26T20:48:24.417Z,11.50
2018-12-26T20:50:53.421Z,11.13
2018-12-26T20:53:22.135Z,11.17
2018-12-26T20:55:51.712Z,11.50
2018-12-26T20:58:20.925Z,12.60
2018-12-26T21:00:50.077Z,12.93
2018-12-26T21:03:18.861Z,10.97
2018-12-26T21:08:28.069Z,13.33
2018-12-26T21:10:57.422Z,14.07
2018-12-26T21:13:26.072Z,11.77
2018-12-26T21:15:55.505Z,12.63
2018-12-26T21:18:24.203Z,11.30
2018-12-26T21:20:53.476Z,14.40
2018-12-26T21:23:22.401Z,12.30
2018-12-26T21:25:51.258Z,14.33
2018-12-26T21:28:20.219Z,15.90
2018-12-26T21:30:49.345Z,13.53
2018-12-26T21:33:18.173Z,12.53
2018-12-26T21:35:47.101Z,16.50
2018-12-26T21:38:15.747Z,14.10
2018-12-26T21:40:44.920Z,14.37
2018-12-26T21:43:13.788Z,14.40
2018-12-26T21:45:42.700Z,22.65
2018-12-26T21:48:11.979Z,19.33
2018-12-26T21:50:40.875Z,16.97
2018-12-26T21:53:10.212Z,16.87
2018-12-26T21:55:38.941Z,16.30
2018-12-26T21:58:07.580Z,16.23
2018-12-26T22:00:36.694Z,17.00
2018-12-26T22:03:05.413Z,17.90
2018-12-26T22:05:34.522Z,16.80
2018-12-26T22:08:03.197Z,16.27
2018-12-26T22:10:34.772Z,19.13
2018-12-26T22:13:03.485Z,18.27
2018-12-26T22:15:32.640Z,17.60
2018-12-26T22:18:01.416Z,18.70
2018-12-26T22:20:30.820Z,18.57
2018-12-26T22:22:59.716Z,18.13
2018-12-26T22:25:28.425Z,15.63
2018-12-26T22:27:57.067Z,19.23
2018-12-26T22:30:25.716Z,19.70
2018-12-26T22:32:55.024Z,16.67
2018-12-26T22:35:23.957Z,18.20
2018-12-26T22:37:52.705Z,17.73
2018-12-26T22:40:21.485Z,17.83
2018-12-26T22:42:50.356Z,16.03
2018-12-26T22:45:19.237Z,17.27
2018-12-26T22:47:48.565Z,18.67
2018-12-26T22:50:17.816Z,17.33
2018-12-26T22:52:46.461Z,18.47
2018-12-26T22:55:15.858Z,17.80
2018-12-26T22:57:45.009Z,17.20
2018-12-26T23:02:47.066Z,17.40
2018-12-26T23:05:15.692Z,18.00
2018-12-26T23:07:44.555Z,18.97
2018-12-26T23:10:13.348Z,19.73
2018-12-26T23:12:42.480Z,18.20
2018-12-26T23:15:11.581Z,19.20
2018-12-26T23:17:40.453Z,18.43
2018-12-26T23:20:09.453Z,18.80
2018-12-26T23:22:38.388Z,17.30
2018-12-26T23:25:07.322Z,17.53
2018-12-26T23:27:36.209Z,19.00
2018-12-26T23:30:05.634Z,17.70
2018-12-26T23:32:34.504Z,17.60
2018-12-26T23:35:03.146Z,20.70
2018-12-26T23:37:32.268Z,18.77
2018-12-26T23:40:00.910Z,18.90
2018-12-26T23:42:29.599Z,20.23
2018-12-26T23:44:58.297Z,21.23
2018-12-26T23:47:27.217Z,19.40
2018-12-26T23:49:55.857Z,19.30
2018-12-26T23:52:24.512Z,22.87
2018-12-26T23:54:53.429Z,20.47
2018-12-26T23:57:22.317Z,18.00
2018-12-26T23:59:51.424Z,20.47
